This is the latest recevied weather packets stored in our database for station/object JR5YHL-13. If no packets are shown the sender has not sent any weather packets the latest 1 day(s).
| Time | Temp. | Humidity | Pressure | Rain* | Wind** | Luminosity | Snow |
|---|---|---|---|---|---|---|---|
| 1778117598 | 28.33° C | 48% | 1012.9 hPa | 0 mm | - | - | - |
| 1778117000 | 28.89° C | 47% | 1012.8 hPa | 0 mm | - | - | - |
| 1778116402 | 30° C | 45% | 1012.8 hPa | 0 mm | - | - | - |
| 1778115804 | 28.89° C | 47% | 1013 hPa | 0 mm | - | - | - |
| 1778114609 | 28.33° C | 48% | 1013.2 hPa | 0 mm | - | - | - |
| 1778114011 | 27.78° C | 44% | 1013.2 hPa | 0 mm | - | - | - |
| 1778113414 | 27.22° C | 44% | 1013.4 hPa | 0 mm | - | - | - |
| 1778112218 | 25.56° C | 45% | 1013.8 hPa | 0 mm | - | - | - |
| 1778111620 | 25° C | 57% | 1014 hPa | 0 mm | - | - | - |
| 1778109827 | 22.22° C | 71% | 1014.5 hPa | 0 mm | - | - | - |
| 1778103850 | 17.22° C | 99% | 1015.3 hPa | 0 mm | - | - | - |
| 1778100862 | 15.56° C | 99% | 1015 hPa | 0 mm | - | - | - |
| 1778098472 | 15.56° C | 99% | 1015.1 hPa | 0 mm | - | - | - |
| 1778092497 | 15° C | 99% | 1015.7 hPa | 0 mm | - | - | - |
| 1778091302 | 15° C | 99% | 1015.8 hPa | 0 mm | - | - | - |
| 1778088314 | 15° C | 99% | 1016.2 hPa | 0 mm | - | - | - |
| 1778086521 | 15.56° C | 99% | 1016.3 hPa | 0 mm | - | - | - |
| 1778085326 | 15.56° C | 99% | 1016.7 hPa | 0 mm | - | - | - |
| 1778084729 | 15.56° C | 99% | 1017 hPa | 0 mm | - | - | - |
| 1778082338 | 15.56° C | 99% | 1017.4 hPa | 0 mm | - | - | - |
| 1778081143 | 15.56° C | 99% | 1017.5 hPa | 0 mm | - | - | - |
| 1778079948 | 16.11° C | 99% | 1017.6 hPa | 0 mm | - | - | - |
| 1778078155 | 16.11° C | 99% | 1018.1 hPa | 0 mm | - | - | - |
| 1778076362 | 16.67° C | 99% | 1018.2 hPa | 0 mm | - | - | - |
| 1778075167 | 16.67° C | 99% | 1018.4 hPa | 0 mm | - | - | - |
* Rain latest hour (hover to see other rain measurements)
** Current wind speed in m/s (hover to see current wind gust speed)